sensor_id;sensor_type;location;lat;lon;timestamp;P1;durP1;ratioP1;P2;durP2;ratioP2
33413;SDS011;60055;41.884;12.534;2022-12-29T00:00:06;44.67;;;27.08;;
33413;SDS011;60055;41.884;12.534;2022-12-29T00:02:33;46.05;;;27.20;;
33413;SDS011;60055;41.884;12.534;2022-12-29T00:04:59;49.78;;;27.95;;
33413;SDS011;60055;41.884;12.534;2022-12-29T00:07:24;45.53;;;28.38;;
33413;SDS011;60055;41.884;12.534;2022-12-29T00:09:50;49.15;;;27.70;;
33413;SDS011;60055;41.884;12.534;2022-12-29T00:12:16;54.85;;;29.55;;
33413;SDS011;60055;41.884;12.534;2022-12-29T00:14:41;53.72;;;31.30;;
33413;SDS011;60055;41.884;12.534;2022-12-29T00:19:51;52.92;;;29.35;;
33413;SDS011;60055;41.884;12.534;2022-12-29T00:22:35;48.60;;;27.40;;
33413;SDS011;60055;41.884;12.534;2022-12-29T00:25:19;54.97;;;28.55;;
33413;SDS011;60055;41.884;12.534;2022-12-29T00:30:48;54.28;;;26.35;;
33413;SDS011;60055;41.884;12.534;2022-12-29T00:39:02;42.75;;;24.75;;
33413;SDS011;60055;41.884;12.534;2022-12-29T00:41:50;43.08;;;25.15;;
33413;SDS011;60055;41.884;12.534;2022-12-29T00:47:00;42.28;;;23.58;;
33413;SDS011;60055;41.884;12.534;2022-12-29T00:49:29;42.20;;;24.73;;
33413;SDS011;60055;41.884;12.534;2022-12-29T00:54:31;43.22;;;24.63;;
33413;SDS011;60055;41.884;12.534;2022-12-29T00:56:58;41.58;;;24.30;;
33413;SDS011;60055;41.884;12.534;2022-12-29T00:59:25;46.03;;;24.05;;
33413;SDS011;60055;41.884;12.534;2022-12-29T01:01:51;43.97;;;24.20;;
33413;SDS011;60055;41.884;12.534;2022-12-29T01:04:18;38.30;;;22.38;;
33413;SDS011;60055;41.884;12.534;2022-12-29T01:06:45;42.22;;;22.83;;
33413;SDS011;60055;41.884;12.534;2022-12-29T01:09:11;36.15;;;22.42;;
33413;SDS011;60055;41.884;12.534;2022-12-29T01:14:21;40.33;;;22.80;;
33413;SDS011;60055;41.884;12.534;2022-12-29T01:16:47;32.95;;;20.00;;
33413;SDS011;60055;41.884;12.534;2022-12-29T01:19:13;43.95;;;21.25;;
33413;SDS011;60055;41.884;12.534;2022-12-29T01:21:40;37.10;;;21.63;;
33413;SDS011;60055;41.884;12.534;2022-12-29T01:24:05;31.42;;;20.23;;
33413;SDS011;60055;41.884;12.534;2022-12-29T01:26:31;35.72;;;20.67;;
33413;SDS011;60055;41.884;12.534;2022-12-29T01:28:57;35.05;;;19.95;;
33413;SDS011;60055;41.884;12.534;2022-12-29T01:31:22;31.83;;;19.70;;
33413;SDS011;60055;41.884;12.534;2022-12-29T01:33:48;34.67;;;19.60;;
33413;SDS011;60055;41.884;12.534;2022-12-29T01:36:15;33.45;;;19.95;;
33413;SDS011;60055;41.884;12.534;2022-12-29T01:38:42;37.75;;;18.98;;
33413;SDS011;60055;41.884;12.534;2022-12-29T01:41:08;34.45;;;19.73;;
33413;SDS011;60055;41.884;12.534;2022-12-29T01:43:46;31.83;;;19.02;;
33413;SDS011;60055;41.884;12.534;2022-12-29T01:51:33;36.10;;;18.80;;
33413;SDS011;60055;41.884;12.534;2022-12-29T01:54:02;34.30;;;19.45;;
33413;SDS011;60055;41.884;12.534;2022-12-29T01:56:32;33.75;;;18.33;;
33413;SDS011;60055;41.884;12.534;2022-12-29T01:59:02;33.28;;;19.20;;
33413;SDS011;60055;41.884;12.534;2022-12-29T02:01:34;29.58;;;18.73;;
33413;SDS011;60055;41.884;12.534;2022-12-29T02:04:01;29.83;;;19.15;;
33413;SDS011;60055;41.884;12.534;2022-12-29T02:06:29;26.63;;;17.23;;
33413;SDS011;60055;41.884;12.534;2022-12-29T02:08:59;30.73;;;18.20;;
33413;SDS011;60055;41.884;12.534;2022-12-29T02:11:25;30.75;;;18.55;;
33413;SDS011;60055;41.884;12.534;2022-12-29T02:13:53;35.00;;;18.60;;
33413;SDS011;60055;41.884;12.534;2022-12-29T02:36:05;33.03;;;20.33;;
33413;SDS011;60055;41.884;12.534;2022-12-29T02:38:48;31.08;;;20.50;;
33413;SDS011;60055;41.884;12.534;2022-12-29T02:44:14;38.50;;;20.20;;
33413;SDS011;60055;41.884;12.534;2022-12-29T02:49:38;32.33;;;20.40;;
33413;SDS011;60055;41.884;12.534;2022-12-29T02:52:22;33.75;;;20.10;;
33413;SDS011;60055;41.884;12.534;2022-12-29T02:54:54;32.80;;;20.20;;
33413;SDS011;60055;41.884;12.534;2022-12-29T02:59:45;32.20;;;20.70;;
33413;SDS011;60055;41.884;12.534;2022-12-29T03:11:09;37.60;;;23.00;;
33413;SDS011;60055;41.884;12.534;2022-12-29T03:14:43;36.72;;;22.73;;
33413;SDS011;60055;41.884;12.534;2022-12-29T03:17:14;40.50;;;23.52;;
33413;SDS011;60055;41.884;12.534;2022-12-29T03:19:51;41.20;;;24.95;;
33413;SDS011;60055;41.884;12.534;2022-12-29T03:22:25;36.97;;;23.77;;
33413;SDS011;60055;41.884;12.534;2022-12-29T03:25:07;40.28;;;24.33;;
33413;SDS011;60055;41.884;12.534;2022-12-29T03:27:44;42.15;;;25.85;;
33413;SDS011;60055;41.884;12.534;2022-12-29T03:30:15;40.55;;;25.30;;
33413;SDS011;60055;41.884;12.534;2022-12-29T03:32:46;45.55;;;24.65;;
33413;SDS011;60055;41.884;12.534;2022-12-29T03:35:16;36.03;;;24.42;;
33413;SDS011;60055;41.884;12.534;2022-12-29T03:37:45;40.22;;;23.38;;
33413;SDS011;60055;41.884;12.534;2022-12-29T03:40:36;43.63;;;23.80;;
33413;SDS011;60055;41.884;12.534;2022-12-29T03:43:04;45.80;;;25.90;;
33413;SDS011;60055;41.884;12.534;2022-12-29T03:45:30;39.90;;;26.02;;
33413;SDS011;60055;41.884;12.534;2022-12-29T03:47:57;42.83;;;26.58;;
33413;SDS011;60055;41.884;12.534;2022-12-29T03:50:23;44.72;;;26.00;;
33413;SDS011;60055;41.884;12.534;2022-12-29T03:52:48;42.88;;;26.95;;
33413;SDS011;60055;41.884;12.534;2022-12-29T03:55:14;42.50;;;27.25;;
33413;SDS011;60055;41.884;12.534;2022-12-29T03:57:40;46.53;;;26.33;;
33413;SDS011;60055;41.884;12.534;2022-12-29T04:00:06;47.55;;;26.33;;
33413;SDS011;60055;41.884;12.534;2022-12-29T04:02:32;41.15;;;25.73;;
33413;SDS011;60055;41.884;12.534;2022-12-29T04:04:58;43.08;;;25.45;;
33413;SDS011;60055;41.884;12.534;2022-12-29T04:07:23;47.17;;;25.33;;
33413;SDS011;60055;41.884;12.534;2022-12-29T04:09:49;38.72;;;23.85;;
33413;SDS011;60055;41.884;12.534;2022-12-29T04:12:15;37.35;;;24.38;;
33413;SDS011;60055;41.884;12.534;2022-12-29T04:14:40;40.50;;;24.60;;
33413;SDS011;60055;41.884;12.534;2022-12-29T04:17:06;39.83;;;24.48;;
33413;SDS011;60055;41.884;12.534;2022-12-29T04:19:31;43.28;;;24.60;;
33413;SDS011;60055;41.884;12.534;2022-12-29T04:21:57;39.53;;;24.27;;
33413;SDS011;60055;41.884;12.534;2022-12-29T04:24:23;37.90;;;22.95;;
33413;SDS011;60055;41.884;12.534;2022-12-29T04:26:48;36.88;;;23.38;;
33413;SDS011;60055;41.884;12.534;2022-12-29T04:29:14;44.22;;;23.42;;
33413;SDS011;60055;41.884;12.534;2022-12-29T04:31:40;39.65;;;24.50;;
33413;SDS011;60055;41.884;12.534;2022-12-29T04:34:06;38.90;;;24.48;;
33413;SDS011;60055;41.884;12.534;2022-12-29T04:36:32;35.17;;;21.90;;
33413;SDS011;60055;41.884;12.534;2022-12-29T04:38:58;33.63;;;22.50;;
33413;SDS011;60055;41.884;12.534;2022-12-29T04:41:24;35.75;;;23.42;;
33413;SDS011;60055;41.884;12.534;2022-12-29T04:43:50;36.83;;;23.42;;
33413;SDS011;60055;41.884;12.534;2022-12-29T04:46:16;38.10;;;25.02;;
33413;SDS011;60055;41.884;12.534;2022-12-29T04:48:41;42.72;;;26.20;;
33413;SDS011;60055;41.884;12.534;2022-12-29T04:51:07;44.13;;;25.70;;
33413;SDS011;60055;41.884;12.534;2022-12-29T04:53:32;42.97;;;24.42;;
33413;SDS011;60055;41.884;12.534;2022-12-29T04:55:58;47.45;;;25.00;;
33413;SDS011;60055;41.884;12.534;2022-12-29T04:58:24;40.85;;;24.45;;
33413;SDS011;60055;41.884;12.534;2022-12-29T05:00:50;41.17;;;23.92;;
33413;SDS011;60055;41.884;12.534;2022-12-29T05:03:16;42.08;;;24.63;;
33413;SDS011;60055;41.884;12.534;2022-12-29T05:05:42;36.95;;;23.83;;
33413;SDS011;60055;41.884;12.534;2022-12-29T05:08:08;39.88;;;24.55;;
33413;SDS011;60055;41.884;12.534;2022-12-29T05:10:33;37.58;;;23.60;;
33413;SDS011;60055;41.884;12.534;2022-12-29T05:12:59;34.60;;;23.08;;
33413;SDS011;60055;41.884;12.534;2022-12-29T05:15:25;36.03;;;23.33;;
33413;SDS011;60055;41.884;12.534;2022-12-29T05:17:52;37.30;;;21.92;;
33413;SDS011;60055;41.884;12.534;2022-12-29T05:20:18;37.90;;;22.45;;
33413;SDS011;60055;41.884;12.534;2022-12-29T05:22:43;32.22;;;21.33;;
33413;SDS011;60055;41.884;12.534;2022-12-29T05:25:09;34.33;;;21.50;;
33413;SDS011;60055;41.884;12.534;2022-12-29T05:27:35;34.92;;;21.00;;
33413;SDS011;60055;41.884;12.534;2022-12-29T05:30:01;37.40;;;21.35;;
33413;SDS011;60055;41.884;12.534;2022-12-29T05:32:27;32.40;;;20.83;;
33413;SDS011;60055;41.884;12.534;2022-12-29T05:34:52;32.03;;;20.15;;
33413;SDS011;60055;41.884;12.534;2022-12-29T05:37:18;31.63;;;20.50;;
33413;SDS011;60055;41.884;12.534;2022-12-29T05:39:44;32.00;;;20.58;;
33413;SDS011;60055;41.884;12.534;2022-12-29T05:42:09;36.35;;;20.77;;
33413;SDS011;60055;41.884;12.534;2022-12-29T05:44:35;36.30;;;22.08;;
33413;SDS011;60055;41.884;12.534;2022-12-29T05:47:00;35.75;;;20.77;;
33413;SDS011;60055;41.884;12.534;2022-12-29T05:49:26;36.13;;;21.20;;
33413;SDS011;60055;41.884;12.534;2022-12-29T05:51:52;42.17;;;24.00;;
33413;SDS011;60055;41.884;12.534;2022-12-29T05:54:17;36.58;;;22.27;;
33413;SDS011;60055;41.884;12.534;2022-12-29T05:56:43;36.33;;;21.23;;
33413;SDS011;60055;41.884;12.534;2022-12-29T05:59:08;36.22;;;21.08;;
33413;SDS011;60055;41.884;12.534;2022-12-29T06:01:34;34.78;;;21.00;;
33413;SDS011;60055;41.884;12.534;2022-12-29T06:04:00;34.03;;;20.38;;
33413;SDS011;60055;41.884;12.534;2022-12-29T06:06:25;36.13;;;20.77;;
33413;SDS011;60055;41.884;12.534;2022-12-29T06:08:51;39.30;;;21.13;;
33413;SDS011;60055;41.884;12.534;2022-12-29T06:11:17;40.92;;;21.05;;
33413;SDS011;60055;41.884;12.534;2022-12-29T06:13:42;39.05;;;21.67;;
33413;SDS011;60055;41.884;12.534;2022-12-29T06:16:08;39.42;;;21.27;;
33413;SDS011;60055;41.884;12.534;2022-12-29T06:18:34;38.40;;;20.55;;
33413;SDS011;60055;41.884;12.534;2022-12-29T06:21:00;34.35;;;20.83;;
33413;SDS011;60055;41.884;12.534;2022-12-29T06:23:27;40.80;;;22.00;;
33413;SDS011;60055;41.884;12.534;2022-12-29T06:25:52;34.47;;;21.30;;
33413;SDS011;60055;41.884;12.534;2022-12-29T06:28:18;36.08;;;20.35;;
33413;SDS011;60055;41.884;12.534;2022-12-29T06:30:44;32.28;;;20.63;;
33413;SDS011;60055;41.884;12.534;2022-12-29T06:33:11;34.05;;;21.00;;
33413;SDS011;60055;41.884;12.534;2022-12-29T06:35:37;35.20;;;21.00;;
33413;SDS011;60055;41.884;12.534;2022-12-29T06:38:03;39.63;;;21.63;;
33413;SDS011;60055;41.884;12.534;2022-12-29T06:40:32;31.13;;;20.88;;
33413;SDS011;60055;41.884;12.534;2022-12-29T06:43:00;37.33;;;21.52;;
33413;SDS011;60055;41.884;12.534;2022-12-29T06:45:26;35.95;;;20.52;;
33413;SDS011;60055;41.884;12.534;2022-12-29T06:47:54;37.33;;;21.00;;
33413;SDS011;60055;41.884;12.534;2022-12-29T06:50:20;33.55;;;20.95;;
33413;SDS011;60055;41.884;12.534;2022-12-29T06:52:45;32.30;;;21.17;;
33413;SDS011;60055;41.884;12.534;2022-12-29T06:55:11;31.50;;;21.20;;
33413;SDS011;60055;41.884;12.534;2022-12-29T06:57:37;36.78;;;21.55;;
33413;SDS011;60055;41.884;12.534;2022-12-29T07:00:04;35.70;;;21.10;;
33413;SDS011;60055;41.884;12.534;2022-12-29T07:02:32;39.33;;;22.20;;
33413;SDS011;60055;41.884;12.534;2022-12-29T07:04:57;39.03;;;21.10;;
33413;SDS011;60055;41.884;12.534;2022-12-29T07:07:23;44.53;;;22.17;;
33413;SDS011;60055;41.884;12.534;2022-12-29T07:09:48;46.63;;;22.63;;
33413;SDS011;60055;41.884;12.534;2022-12-29T07:12:14;50.05;;;25.42;;
33413;SDS011;60055;41.884;12.534;2022-12-29T07:14:39;43.30;;;24.23;;
33413;SDS011;60055;41.884;12.534;2022-12-29T07:17:05;45.13;;;23.55;;
33413;SDS011;60055;41.884;12.534;2022-12-29T07:19:32;41.97;;;24.15;;
33413;SDS011;60055;41.884;12.534;2022-12-29T07:21:59;46.30;;;22.60;;
33413;SDS011;60055;41.884;12.534;2022-12-29T07:24:25;41.92;;;22.50;;
33413;SDS011;60055;41.884;12.534;2022-12-29T07:26:51;39.90;;;21.98;;
33413;SDS011;60055;41.884;12.534;2022-12-29T07:29:17;38.03;;;22.90;;
33413;SDS011;60055;41.884;12.534;2022-12-29T07:31:42;41.67;;;22.10;;
33413;SDS011;60055;41.884;12.534;2022-12-29T07:34:10;37.25;;;22.30;;
33413;SDS011;60055;41.884;12.534;2022-12-29T07:36:35;40.28;;;22.38;;
33413;SDS011;60055;41.884;12.534;2022-12-29T07:39:01;36.08;;;22.90;;
33413;SDS011;60055;41.884;12.534;2022-12-29T07:41:27;39.53;;;23.67;;
33413;SDS011;60055;41.884;12.534;2022-12-29T07:43:53;45.15;;;22.65;;
33413;SDS011;60055;41.884;12.534;2022-12-29T07:46:19;40.70;;;23.05;;
33413;SDS011;60055;41.884;12.534;2022-12-29T07:48:45;45.20;;;22.23;;
33413;SDS011;60055;41.884;12.534;2022-12-29T07:51:10;39.65;;;22.42;;
33413;SDS011;60055;41.884;12.534;2022-12-29T07:53:36;41.78;;;22.58;;
33413;SDS011;60055;41.884;12.534;2022-12-29T07:56:02;42.83;;;21.23;;
33413;SDS011;60055;41.884;12.534;2022-12-29T07:58:27;41.13;;;22.23;;
33413;SDS011;60055;41.884;12.534;2022-12-29T08:00:53;39.03;;;21.52;;
33413;SDS011;60055;41.884;12.534;2022-12-29T08:03:20;37.15;;;21.20;;
33413;SDS011;60055;41.884;12.534;2022-12-29T08:05:47;35.72;;;20.42;;
33413;SDS011;60055;41.884;12.534;2022-12-29T08:08:13;41.53;;;20.80;;
33413;SDS011;60055;41.884;12.534;2022-12-29T08:10:38;41.30;;;20.35;;
33413;SDS011;60055;41.884;12.534;2022-12-29T08:13:04;40.30;;;21.45;;
33413;SDS011;60055;41.884;12.534;2022-12-29T08:15:30;43.13;;;21.30;;
33413;SDS011;60055;41.884;12.534;2022-12-29T08:17:55;39.20;;;21.00;;
33413;SDS011;60055;41.884;12.534;2022-12-29T08:20:21;42.75;;;22.45;;
33413;SDS011;60055;41.884;12.534;2022-12-29T08:22:46;37.80;;;21.08;;
33413;SDS011;60055;41.884;12.534;2022-12-29T08:25:12;45.53;;;21.70;;
33413;SDS011;60055;41.884;12.534;2022-12-29T08:27:37;43.88;;;23.15;;
33413;SDS011;60055;41.884;12.534;2022-12-29T08:30:03;45.70;;;20.73;;
33413;SDS011;60055;41.884;12.534;2022-12-29T08:32:29;44.40;;;21.05;;
33413;SDS011;60055;41.884;12.534;2022-12-29T08:34:55;42.65;;;20.60;;
33413;SDS011;60055;41.884;12.534;2022-12-29T08:37:21;39.03;;;21.73;;
33413;SDS011;60055;41.884;12.534;2022-12-29T08:39:47;38.67;;;21.15;;
33413;SDS011;60055;41.884;12.534;2022-12-29T08:42:12;41.45;;;20.25;;
33413;SDS011;60055;41.884;12.534;2022-12-29T08:44:38;86.30;;;49.42;;
33413;SDS011;60055;41.884;12.534;2022-12-29T08:47:04;72.65;;;42.92;;
33413;SDS011;60055;41.884;12.534;2022-12-29T08:49:31;60.13;;;34.72;;
33413;SDS011;60055;41.884;12.534;2022-12-29T08:51:58;66.80;;;40.25;;
33413;SDS011;60055;41.884;12.534;2022-12-29T08:54:24;40.22;;;19.90;;
33413;SDS011;60055;41.884;12.534;2022-12-29T08:56:50;43.13;;;20.35;;
33413;SDS011;60055;41.884;12.534;2022-12-29T08:59:16;44.65;;;20.05;;
33413;SDS011;60055;41.884;12.534;2022-12-29T09:01:43;40.35;;;17.90;;
33413;SDS011;60055;41.884;12.534;2022-12-29T09:04:08;31.77;;;17.15;;
33413;SDS011;60055;41.884;12.534;2022-12-29T09:06:34;34.70;;;16.40;;
33413;SDS011;60055;41.884;12.534;2022-12-29T09:09:00;32.47;;;16.23;;
33413;SDS011;60055;41.884;12.534;2022-12-29T09:11:26;38.97;;;17.92;;
33413;SDS011;60055;41.884;12.534;2022-12-29T09:13:52;31.60;;;15.68;;
33413;SDS011;60055;41.884;12.534;2022-12-29T09:16:18;33.50;;;16.02;;
33413;SDS011;60055;41.884;12.534;2022-12-29T09:18:46;38.08;;;16.02;;
33413;SDS011;60055;41.884;12.534;2022-12-29T09:21:12;36.03;;;15.75;;
33413;SDS011;60055;41.884;12.534;2022-12-29T09:23:38;34.60;;;14.45;;
33413;SDS011;60055;41.884;12.534;2022-12-29T09:26:04;32.30;;;14.73;;
33413;SDS011;60055;41.884;12.534;2022-12-29T09:28:32;31.75;;;15.13;;
33413;SDS011;60055;41.884;12.534;2022-12-29T09:30:58;31.83;;;13.95;;
33413;SDS011;60055;41.884;12.534;2022-12-29T09:33:24;34.55;;;14.70;;
33413;SDS011;60055;41.884;12.534;2022-12-29T09:35:51;33.13;;;14.93;;
33413;SDS011;60055;41.884;12.534;2022-12-29T09:38:18;29.42;;;14.77;;
33413;SDS011;60055;41.884;12.534;2022-12-29T09:40:45;26.70;;;13.48;;
33413;SDS011;60055;41.884;12.534;2022-12-29T09:46:37;27.23;;;10.85;;
33413;SDS011;60055;41.884;12.534;2022-12-29T09:51:48;18.83;;;9.48;;
33413;SDS011;60055;41.884;12.534;2022-12-29T09:54:25;19.92;;;9.48;;
33413;SDS011;60055;41.884;12.534;2022-12-29T09:57:16;22.80;;;9.13;;
33413;SDS011;60055;41.884;12.534;2022-12-29T10:00:03;21.10;;;9.20;;
33413;SDS011;60055;41.884;12.534;2022-12-29T10:02:37;22.80;;;9.32;;
33413;SDS011;60055;41.884;12.534;2022-12-29T10:08:16;27.35;;;10.50;;
33413;SDS011;60055;41.884;12.534;2022-12-29T10:18:43;26.52;;;9.82;;
33413;SDS011;60055;41.884;12.534;2022-12-29T10:24:09;14.70;;;5.45;;
33413;SDS011;60055;41.884;12.534;2022-12-29T10:26:43;17.00;;;6.65;;
33413;SDS011;60055;41.884;12.534;2022-12-29T10:29:32;19.70;;;8.23;;
33413;SDS011;60055;41.884;12.534;2022-12-29T10:32:05;18.75;;;8.25;;
33413;SDS011;60055;41.884;12.534;2022-12-29T10:40:11;14.63;;;5.07;;
33413;SDS011;60055;41.884;12.534;2022-12-29T10:42:50;13.48;;;5.13;;
33413;SDS011;60055;41.884;12.534;2022-12-29T10:45:18;14.45;;;5.30;;
33413;SDS011;60055;41.884;12.534;2022-12-29T10:47:52;12.70;;;4.97;;
33413;SDS011;60055;41.884;12.534;2022-12-29T10:50:28;10.13;;;4.63;;
33413;SDS011;60055;41.884;12.534;2022-12-29T10:52:54;10.85;;;3.80;;
33413;SDS011;60055;41.884;12.534;2022-12-29T10:55:27;9.45;;;4.30;;
33413;SDS011;60055;41.884;12.534;2022-12-29T10:57:59;10.52;;;4.00;;
33413;SDS011;60055;41.884;12.534;2022-12-29T11:00:29;12.98;;;4.38;;
33413;SDS011;60055;41.884;12.534;2022-12-29T11:08:03;14.07;;;4.72;;
33413;SDS011;60055;41.884;12.534;2022-12-29T11:10:35;12.02;;;5.03;;
33413;SDS011;60055;41.884;12.534;2022-12-29T11:13:17;8.27;;;4.20;;
33413;SDS011;60055;41.884;12.534;2022-12-29T11:15:44;11.73;;;5.15;;
33413;SDS011;60055;41.884;12.534;2022-12-29T11:18:31;13.73;;;4.95;;
33413;SDS011;60055;41.884;12.534;2022-12-29T11:21:02;15.05;;;5.25;;
33413;SDS011;60055;41.884;12.534;2022-12-29T11:23:37;11.32;;;5.13;;
33413;SDS011;60055;41.884;12.534;2022-12-29T11:28:41;17.90;;;6.82;;
33413;SDS011;60055;41.884;12.534;2022-12-29T11:31:09;14.77;;;5.47;;
33413;SDS011;60055;41.884;12.534;2022-12-29T11:33:40;15.35;;;4.82;;
33413;SDS011;60055;41.884;12.534;2022-12-29T11:36:06;14.05;;;4.80;;
33413;SDS011;60055;41.884;12.534;2022-12-29T11:38:39;12.25;;;4.45;;
33413;SDS011;60055;41.884;12.534;2022-12-29T11:41:13;12.73;;;4.70;;
33413;SDS011;60055;41.884;12.534;2022-12-29T11:43:52;12.73;;;4.00;;
33413;SDS011;60055;41.884;12.534;2022-12-29T11:46:24;14.02;;;4.68;;
33413;SDS011;60055;41.884;12.534;2022-12-29T11:48:50;16.13;;;4.68;;
33413;SDS011;60055;41.884;12.534;2022-12-29T11:51:29;18.23;;;5.40;;
33413;SDS011;60055;41.884;12.534;2022-12-29T11:54:03;15.80;;;4.60;;
33413;SDS011;60055;41.884;12.534;2022-12-29T11:56:33;14.07;;;4.15;;
33413;SDS011;60055;41.884;12.534;2022-12-29T12:05:22;57.67;;;13.55;;
33413;SDS011;60055;41.884;12.534;2022-12-29T12:10:46;13.30;;;5.95;;
33413;SDS011;60055;41.884;12.534;2022-12-29T12:13:41;13.68;;;4.88;;
33413;SDS011;60055;41.884;12.534;2022-12-29T12:16:17;12.30;;;4.95;;
33413;SDS011;60055;41.884;12.534;2022-12-29T12:18:50;14.57;;;4.80;;
33413;SDS011;60055;41.884;12.534;2022-12-29T12:21:38;13.13;;;4.47;;
33413;SDS011;60055;41.884;12.534;2022-12-29T12:24:22;22.08;;;9.40;;
33413;SDS011;60055;41.884;12.534;2022-12-29T12:27:33;16.80;;;6.35;;
33413;SDS011;60055;41.884;12.534;2022-12-29T12:32:53;13.50;;;4.90;;
33413;SDS011;60055;41.884;12.534;2022-12-29T12:35:43;10.60;;;4.22;;
33413;SDS011;60055;41.884;12.534;2022-12-29T12:38:38;10.98;;;4.47;;
33413;SDS011;60055;41.884;12.534;2022-12-29T12:52:49;13.20;;;4.90;;
33413;SDS011;60055;41.884;12.534;2022-12-29T12:55:28;12.88;;;5.32;;
33413;SDS011;60055;41.884;12.534;2022-12-29T12:58:39;14.30;;;4.60;;
33413;SDS011;60055;41.884;12.534;2022-12-29T13:00:54;12.60;;;4.88;;
33413;SDS011;60055;41.884;12.534;2022-12-29T13:12:30;10.05;;;5.00;;
33413;SDS011;60055;41.884;12.534;2022-12-29T13:18:30;13.88;;;5.28;;
33413;SDS011;60055;41.884;12.534;2022-12-29T13:21:10;13.73;;;5.70;;
33413;SDS011;60055;41.884;12.534;2022-12-29T13:26:43;16.55;;;4.88;;
33413;SDS011;60055;41.884;12.534;2022-12-29T13:29:25;16.90;;;4.85;;
33413;SDS011;60055;41.884;12.534;2022-12-29T13:37:26;11.70;;;4.50;;
33413;SDS011;60055;41.884;12.534;2022-12-29T13:40:03;15.95;;;5.05;;
33413;SDS011;60055;41.884;12.534;2022-12-29T13:42:37;12.13;;;4.88;;
33413;SDS011;60055;41.884;12.534;2022-12-29T13:45:05;10.90;;;4.97;;
33413;SDS011;60055;41.884;12.534;2022-12-29T13:47:40;13.07;;;4.75;;
33413;SDS011;60055;41.884;12.534;2022-12-29T13:50:13;14.13;;;5.00;;
33413;SDS011;60055;41.884;12.534;2022-12-29T13:52:44;15.95;;;4.65;;
33413;SDS011;60055;41.884;12.534;2022-12-29T13:58:05;12.68;;;5.43;;
33413;SDS011;60055;41.884;12.534;2022-12-29T14:01:03;12.68;;;4.93;;
33413;SDS011;60055;41.884;12.534;2022-12-29T14:03:55;12.73;;;5.47;;
33413;SDS011;60055;41.884;12.534;2022-12-29T14:06:30;13.27;;;4.82;;
33413;SDS011;60055;41.884;12.534;2022-12-29T14:09:00;10.25;;;4.60;;
33413;SDS011;60055;41.884;12.534;2022-12-29T14:11:38;13.57;;;5.22;;
33413;SDS011;60055;41.884;12.534;2022-12-29T14:14:13;13.40;;;5.18;;
33413;SDS011;60055;41.884;12.534;2022-12-29T14:16:45;13.07;;;5.07;;
33413;SDS011;60055;41.884;12.534;2022-12-29T14:21:57;9.88;;;5.00;;
33413;SDS011;60055;41.884;12.534;2022-12-29T14:24:27;13.00;;;4.82;;
33413;SDS011;60055;41.884;12.534;2022-12-29T14:26:53;11.88;;;4.90;;
33413;SDS011;60055;41.884;12.534;2022-12-29T14:31:53;16.02;;;5.60;;
33413;SDS011;60055;41.884;12.534;2022-12-29T14:37:00;15.02;;;5.45;;
33413;SDS011;60055;41.884;12.534;2022-12-29T14:44:45;10.98;;;5.20;;
33413;SDS011;60055;41.884;12.534;2022-12-29T14:47:25;13.35;;;5.55;;
33413;SDS011;60055;41.884;12.534;2022-12-29T14:49:52;13.85;;;5.57;;
33413;SDS011;60055;41.884;12.534;2022-12-29T14:52:20;11.50;;;5.60;;
33413;SDS011;60055;41.884;12.534;2022-12-29T14:57:25;14.23;;;5.90;;
33413;SDS011;60055;41.884;12.534;2022-12-29T15:02:49;14.52;;;6.30;;
33413;SDS011;60055;41.884;12.534;2022-12-29T15:05:30;12.77;;;6.07;;
33413;SDS011;60055;41.884;12.534;2022-12-29T15:08:03;16.80;;;6.45;;
33413;SDS011;60055;41.884;12.534;2022-12-29T15:10:32;21.52;;;6.70;;
33413;SDS011;60055;41.884;12.534;2022-12-29T15:13:12;17.15;;;6.60;;
33413;SDS011;60055;41.884;12.534;2022-12-29T15:15:40;18.52;;;7.13;;
33413;SDS011;60055;41.884;12.534;2022-12-29T15:18:13;20.67;;;6.90;;
33413;SDS011;60055;41.884;12.534;2022-12-29T15:21:01;18.95;;;7.07;;
33413;SDS011;60055;41.884;12.534;2022-12-29T15:23:29;19.52;;;8.05;;
33413;SDS011;60055;41.884;12.534;2022-12-29T15:26:03;16.00;;;7.93;;
33413;SDS011;60055;41.884;12.534;2022-12-29T15:28:45;18.75;;;8.18;;
33413;SDS011;60055;41.884;12.534;2022-12-29T15:31:12;16.45;;;6.38;;
33413;SDS011;60055;41.884;12.534;2022-12-29T15:33:44;13.90;;;6.03;;
33413;SDS011;60055;41.884;12.534;2022-12-29T15:36:24;14.18;;;6.22;;
33413;SDS011;60055;41.884;12.534;2022-12-29T15:38:51;12.60;;;6.20;;
33413;SDS011;60055;41.884;12.534;2022-12-29T15:44:29;15.70;;;6.28;;
33413;SDS011;60055;41.884;12.534;2022-12-29T15:46:57;16.35;;;6.40;;
33413;SDS011;60055;41.884;12.534;2022-12-29T15:49:27;15.45;;;6.80;;
33413;SDS011;60055;41.884;12.534;2022-12-29T15:51:52;21.38;;;6.65;;
33413;SDS011;60055;41.884;12.534;2022-12-29T15:54:19;25.10;;;11.80;;
33413;SDS011;60055;41.884;12.534;2022-12-29T15:56:47;20.95;;;11.15;;
33413;SDS011;60055;41.884;12.534;2022-12-29T15:59:28;21.38;;;9.07;;
33413;SDS011;60055;41.884;12.534;2022-12-29T16:01:55;16.27;;;7.75;;
33413;SDS011;60055;41.884;12.534;2022-12-29T16:04:22;18.15;;;8.68;;
33413;SDS011;60055;41.884;12.534;2022-12-29T16:07:00;21.88;;;8.23;;
33413;SDS011;60055;41.884;12.534;2022-12-29T16:11:55;15.70;;;7.03;;
33413;SDS011;60055;41.884;12.534;2022-12-29T16:14:27;21.65;;;7.18;;
33413;SDS011;60055;41.884;12.534;2022-12-29T16:16:59;17.15;;;6.82;;
33413;SDS011;60055;41.884;12.534;2022-12-29T16:19:31;17.05;;;7.60;;
33413;SDS011;60055;41.884;12.534;2022-12-29T16:21:58;17.23;;;6.75;;
33413;SDS011;60055;41.884;12.534;2022-12-29T16:24:26;17.08;;;7.03;;
33413;SDS011;60055;41.884;12.534;2022-12-29T16:27:01;14.85;;;6.68;;
33413;SDS011;60055;41.884;12.534;2022-12-29T16:29:39;23.95;;;11.10;;
33413;SDS011;60055;41.884;12.534;2022-12-29T16:32:22;25.77;;;11.15;;
33413;SDS011;60055;41.884;12.534;2022-12-29T16:35:02;25.10;;;12.45;;
33413;SDS011;60055;41.884;12.534;2022-12-29T16:37:37;17.52;;;8.82;;
33413;SDS011;60055;41.884;12.534;2022-12-29T16:42:47;22.05;;;6.90;;
33413;SDS011;60055;41.884;12.534;2022-12-29T16:50:30;16.50;;;7.82;;
33413;SDS011;60055;41.884;12.534;2022-12-29T16:52:56;15.70;;;7.15;;
33413;SDS011;60055;41.884;12.534;2022-12-29T16:55:23;20.38;;;8.30;;
33413;SDS011;60055;41.884;12.534;2022-12-29T16:57:50;22.30;;;8.35;;
33413;SDS011;60055;41.884;12.534;2022-12-29T17:00:22;20.10;;;8.38;;
33413;SDS011;60055;41.884;12.534;2022-12-29T17:02:51;23.38;;;9.02;;
33413;SDS011;60055;41.884;12.534;2022-12-29T17:05:20;22.55;;;8.73;;
33413;SDS011;60055;41.884;12.534;2022-12-29T17:07:45;19.88;;;9.35;;
33413;SDS011;60055;41.884;12.534;2022-12-29T17:10:13;22.58;;;10.13;;
33413;SDS011;60055;41.884;12.534;2022-12-29T17:12:39;21.75;;;10.20;;
33413;SDS011;60055;41.884;12.534;2022-12-29T17:15:10;25.73;;;10.02;;
33413;SDS011;60055;41.884;12.534;2022-12-29T17:17:46;23.33;;;11.18;;
33413;SDS011;60055;41.884;12.534;2022-12-29T17:22:49;22.05;;;10.07;;
33413;SDS011;60055;41.884;12.534;2022-12-29T17:25:18;28.95;;;11.20;;